Time;durP1;ratioP1;P1;durP2;ratioP2;P2;SDS_P1;SDS_P2;PMS_P1;PMS_P2;Temp;Humidity;BMP_temperature;BMP_pressure;BME280_temperature;BME280_humidity;BME280_pressure;Samples;Min_cycle;Max_cycle;Signal;HPM_P1;HPM_P2
2022/06/03 00:02:42;;;;;;;36.97;13.52;;;;;;;12.49;79.84;100498.28;5104149;28;20103;-69
2022/06/03 00:05:36;;;;;;;35.42;13.73;;;;;;;12.47;79.84;100500.03;5104214;28;20088;-69
2022/06/03 00:08:10;;;;;;;32.05;13.52;;;;;;;12.44;80.14;100497.47;5103965;28;20024;-69
2022/06/03 00:10:57;;;;;;;37.45;15.20;;;;;;;12.43;80.31;100488.81;5104086;28;20028;-69
2022/06/03 00:13:35;;;;;;;37.70;13.57;;;;;;;12.41;80.62;100489.72;5103925;28;20028;-69
2022/06/03 00:16:46;;;;;;;41.90;13.65;;;;;;;12.37;80.93;100494.09;5103742;28;20020;-70
2022/06/03 00:19:47;;;;;;;38.28;13.07;;;;;;;12.35;80.77;100485.44;5085895;28;20082;-70
2022/06/03 00:22:19;;;;;;;39.17;14.43;;;;;;;12.35;81.04;100493.25;5101002;28;20483;-69
2022/06/03 00:25:06;;;;;;;33.25;13.25;;;;;;;12.35;81.09;100486.31;5085850;28;20028;-70
2022/06/03 00:27:56;;;;;;;37.13;13.85;;;;;;;12.34;81.10;100494.16;5085406;28;20020;-69
2022/06/03 00:30:53;;;;;;;48.80;14.20;;;;;;;12.35;81.18;100490.66;5103921;28;20046;-70
2022/06/03 00:33:32;;;;;;;42.63;14.80;;;;;;;12.31;80.99;100491.59;5103819;28;20412;-70
2022/06/03 00:36:19;;;;;;;33.97;12.90;;;;;;;12.30;81.21;100501.13;5085407;28;20023;-69
2022/06/03 00:38:47;;;;;;;41.63;14.02;;;;;;;12.29;81.40;100495.94;5103754;28;20410;-70
2022/06/03 00:41:36;;;;;;;31.70;11.88;;;;;;;12.27;81.61;100485.56;5103886;28;20077;-70
2022/06/03 00:44:24;;;;;;;32.92;13.32;;;;;;;12.22;81.54;100488.22;5085199;28;20020;-70
2022/06/03 00:46:58;;;;;;;45.85;15.18;;;;;;;12.30;81.25;100488.13;5103868;28;20020;-70
2022/06/03 00:49:39;;;;;;;31.63;14.05;;;;;;;12.29;81.46;100490.75;5103135;28;20028;-70
2022/06/03 00:52:07;;;;;;;34.05;13.15;;;;;;;12.26;81.33;100492.53;5085211;28;20063;-70
2022/06/03 00:55:09;;;;;;;43.15;13.63;;;;;;;12.23;81.53;100492.56;5103595;28;20020;-70
2022/06/03 00:58:09;;;;;;;35.60;12.50;;;;;;;12.24;81.32;100498.63;5103459;28;20036;-70
2022/06/03 01:00:57;;;;;;;36.80;14.23;;;;;;;12.27;81.12;100501.19;5103339;28;20103;-70
2022/06/03 01:03:22;;;;;;;25.33;12.98;;;;;;;12.22;81.30;100487.38;5092321;28;20032;-69
2022/06/03 01:06:07;;;;;;;43.88;13.98;;;;;;;12.22;81.09;100492.59;5103341;28;20387;-70
2022/06/03 01:08:57;;;;;;;35.72;13.88;;;;;;;12.18;81.22;100496.09;5103357;28;20060;-70
2022/06/03 01:11:49;;;;;;;36.80;12.32;;;;;;;12.17;80.93;100495.25;5103699;28;20077;-69
2022/06/03 01:14:36;;;;;;;33.55;11.88;;;;;;;12.08;81.32;100498.84;5103238;28;20024;-69
2022/06/03 01:17:23;;;;;;;36.45;14.07;;;;;;;12.06;81.36;100505.75;5103378;28;20020;-69
2022/06/03 01:20:22;;;;;;;39.97;14.10;;;;;;;12.05;81.34;100506.66;5103049;28;20114;-69
2022/06/03 01:23:05;;;;;;;29.30;12.68;;;;;;;12.06;81.24;100513.56;5102958;28;20038;-70
2022/06/03 01:25:36;;;;;;;28.15;14.65;;;;;;;12.08;80.98;100514.44;5103244;28;20020;-69
2022/06/03 01:28:14;;;;;;;35.13;13.38;;;;;;;12.06;80.96;100510.13;5084888;28;20019;-69
2022/06/03 01:31:16;;;;;;;32.25;12.52;;;;;;;11.96;81.02;100493.75;5103127;28;20028;-70
2022/06/03 01:34:01;;;;;;;32.28;13.20;;;;;;;11.98;81.08;100507.63;5103334;28;20366;-70
2022/06/03 01:36:27;;;;;;;38.22;13.15;;;;;;;11.98;80.75;100500.66;5103136;28;20024;-70
2022/06/03 01:39:23;;;;;;;32.33;14.15;;;;;;;11.96;80.98;100512.84;5103182;28;20020;-69
2022/06/03 01:42:20;;;;;;;22.70;11.35;;;;;;;11.94;80.84;100516.31;5103272;28;20073;-70
2022/06/03 01:44:59;;;;;;;28.77;12.80;;;;;;;11.96;80.87;100509.38;5103175;28;20019;-70
2022/06/03 01:47:24;;;;;;;36.17;12.15;;;;;;;11.96;80.72;100504.16;5103160;28;20024;-69
2022/06/03 01:50:17;;;;;;;35.20;14.05;;;;;;;11.92;80.69;100513.75;5102941;28;20451;-69
2022/06/03 01:52:48;;;;;;;34.22;12.23;;;;;;;11.92;80.49;100528.50;5103121;28;20024;-70
2022/06/03 01:55:25;;;;;;;34.00;12.00;;;;;;;11.89;80.55;100525.06;5102842;28;20044;-69
2022/06/03 01:58:08;;;;;;;28.63;12.75;;;;;;;11.86;80.71;100519.03;5102936;28;20103;-70
2022/06/03 02:00:43;;;;;;;31.27;12.27;;;;;;;11.91;80.65;100522.44;5103011;28;20546;-70
2022/06/03 02:03:11;;;;;;;31.08;13.80;;;;;;;11.92;80.32;100523.31;5106869;28;20051;-70
2022/06/03 02:05:45;;;;;;;29.48;13.13;;;;;;;11.94;80.26;100516.31;5106654;28;20016;-70
2022/06/03 02:08:38;;;;;;;29.23;12.75;;;;;;;11.92;80.16;100518.94;5106418;28;20027;-70
2022/06/03 02:11:35;;;;;;;34.60;12.68;;;;;;;11.90;79.79;100511.16;5106698;28;20115;-70
2022/06/03 02:14:09;;;;;;;24.25;12.90;;;;;;;11.90;79.99;100512.94;5106359;28;20088;-70
2022/06/03 02:16:52;;;;;;;27.25;12.40;;;;;;;11.84;79.62;100521.66;5106474;28;20028;-69
2022/06/03 02:19:27;;;;;;;38.58;13.00;;;;;;;11.77;79.60;100531.25;5106395;28;20034;-69
2022/06/03 02:22:09;;;;;;;31.83;13.27;;;;;;;11.71;79.75;100520.91;5106233;28;20024;-69
2022/06/03 02:24:43;;;;;;;24.92;11.45;;;;;;;11.72;79.46;100535.66;5106584;28;20027;-69
2022/06/03 02:27:39;;;;;;;30.52;10.75;;;;;;;11.69;79.80;100527.03;5088113;28;20424;-69
2022/06/03 02:30:25;;;;;;;25.55;13.25;;;;;;;11.70;79.46;100532.22;5106137;28;20031;-70
2022/06/03 02:33:18;;;;;;;23.67;11.23;;;;;;;11.68;79.65;100530.53;5106128;28;20082;-70
2022/06/03 02:35:46;;;;;;;;;;;;;;;11.71;79.09;100535.69;5106510;28;20468;-70
2022/06/03 02:38:29;;;;;;;33.00;12.45;;;;;;;11.63;79.31;100538.34;5105946;28;19973;-70
2022/06/03 02:41:01;;;;;;;27.55;12.93;;;;;;;11.59;79.55;100549.66;5087967;28;20016;-70
2022/06/03 02:43:41;;;;;;;32.17;12.43;;;;;;;11.60;79.52;100551.38;5105933;28;20024;-70
2022/06/03 02:46:31;;;;;;;27.60;13.77;;;;;;;11.60;79.70;100539.25;5105943;28;20020;-70
2022/06/03 02:49:08;;;;;;;26.35;11.38;;;;;;;11.57;79.74;100533.22;5087488;28;20024;-70
2022/06/03 02:51:45;;;;;;;28.15;12.70;;;;;;;11.60;79.67;100534.03;5087759;28;20020;-70
2022/06/03 02:54:34;;;;;;;28.10;12.43;;;;;;;11.61;79.53;100525.34;5105653;28;20024;-70
2022/06/03 02:57:18;;;;;;;27.00;12.52;;;;;;;11.62;79.26;100532.31;5104550;28;20048;-70
2022/06/03 03:00:11;;;;;;;23.17;12.20;;;;;;;11.60;79.38;100535.78;5105491;28;20024;-70
2022/06/03 03:03:12;;;;;;;26.67;12.48;;;;;;;11.62;79.18;100534.03;5105617;28;20540;-69
2022/06/03 03:06:14;;;;;;;29.95;13.55;;;;;;;11.62;79.00;100537.50;5063709;28;20056;-69
2022/06/03 03:09:14;;;;;;;28.35;13.38;;;;;;;11.61;78.92;100525.34;5105313;28;20027;-70
2022/06/03 03:12:02;;;;;;;23.73;12.73;;;;;;;11.59;78.88;100532.34;5086727;28;20115;-69
2022/06/03 03:14:57;;;;;;;25.20;12.38;;;;;;;11.55;78.85;100532.38;5105210;28;20027;-68
2022/06/03 03:17:44;;;;;;;36.05;14.30;;;;;;;11.58;78.79;100530.59;5105340;28;20035;-68
2022/06/03 03:20:15;;;;;;;36.40;15.85;;;;;;;11.59;78.80;100534.06;5104986;28;20035;-69
2022/06/03 03:22:49;;;;;;;26.83;12.93;;;;;;;11.58;78.59;100535.78;5105236;28;20028;-69
2022/06/03 03:25:40;;;;;;;37.30;14.63;;;;;;;11.55;78.73;100541.03;5105104;28;20080;-69
2022/06/03 03:28:29;;;;;;;20.67;11.93;;;;;;;11.53;78.76;100542.81;5104832;28;20028;-69
2022/06/03 03:30:57;;;;;;;33.42;15.35;;;;;;;11.54;78.71;100539.31;5078362;28;20040;-69
2022/06/03 03:34:01;;;;;;;29.27;13.45;;;;;;;11.57;78.84;100547.06;5104963;28;20020;-69
2022/06/03 03:36:47;;;;;;;30.27;13.25;;;;;;;11.55;78.93;100555.78;5104950;28;20054;-69
2022/06/03 03:39:40;;;;;;;28.55;12.73;;;;;;;11.53;78.83;100554.03;5104816;28;20020;-69
2022/06/03 03:42:47;;;;;;;29.05;11.57;;;;;;;11.54;79.05;100560.13;5104692;28;20032;-69
2022/06/03 03:45:25;;;;;;;23.10;12.77;;;;;;;11.55;78.85;100548.81;5022019;28;20054;-69
2022/06/03 03:48:08;;;;;;;32.35;13.50;;;;;;;11.60;78.44;100548.78;5021722;28;20141;-69
2022/06/03 03:50:56;;;;;;;25.92;13.07;;;;;;;11.56;78.61;100547.09;5022057;28;20025;-69
2022/06/03 03:53:59;;;;;;;32.00;11.75;;;;;;;11.56;78.72;100550.56;5005406;28;20053;-69
2022/06/03 03:57:02;;;;;;;24.90;13.05;;;;;;;11.57;78.75;100554.00;5021526;28;20546;-69
2022/06/03 04:00:07;;;;;;;24.48;9.82;;;;;;;11.47;79.03;100529.88;5021730;28;20318;-68
2022/06/03 04:03:14;;;;;;;30.75;12.20;;;;;;;11.56;79.08;100560.09;5021749;28;20030;-68
2022/06/03 04:05:48;;;;;;;27.02;12.10;;;;;;;11.59;79.00;100563.53;5010652;28;20099;-69
2022/06/03 04:08:35;;;;;;;33.05;15.35;;;;;;;11.63;79.03;100570.41;5021236;28;20053;-69
2022/06/03 04:11:26;;;;;;;30.73;12.50;;;;;;;11.71;78.87;100578.13;5021353;28;20033;-69
2022/06/03 04:14:29;;;;;;;25.30;12.23;;;;;;;11.78;78.44;100573.75;5021205;28;20057;-68
2022/06/03 04:17:16;;;;;;;34.75;12.65;;;;;;;11.77;78.35;100583.28;5021192;28;20085;-73
2022/06/03 04:20:14;;;;;;;33.13;13.48;;;;;;;11.76;78.23;100581.56;5027078;28;20029;-73
2022/06/03 04:22:59;;;;;;;29.25;12.43;;;;;;;11.82;78.22;100585.81;5103228;28;20040;-69
2022/06/03 04:25:53;;;;;;;26.95;11.02;;;;;;;11.81;77.86;100573.69;5103536;28;20028;-68
2022/06/03 04:28:46;;;;;;;29.83;12.10;;;;;;;11.78;77.50;100590.22;5087931;28;20020;-69
2022/06/03 04:32:01;;;;;;;27.63;12.25;;;;;;;11.78;77.66;100585.00;5104007;28;20024;-69
2022/06/03 04:34:51;;;;;;;27.33;12.50;;;;;;;11.79;77.50;100591.06;5085130;28;20030;-69
2022/06/03 04:37:54;;;;;;;30.00;11.88;;;;;;;11.78;77.39;100597.16;5103941;28;20030;-69
2022/06/03 04:40:50;;;;;;;21.52;11.05;;;;;;;11.77;77.19;100604.06;5085446;28;20077;-69
2022/06/03 04:43:54;;;;;;;24.30;11.02;;;;;;;11.75;77.31;100602.38;5103410;28;20028;-69
2022/06/03 04:46:34;;;;;;;22.70;11.18;;;;;;;11.76;77.25;100602.38;5103916;28;20020;-68
2022/06/03 04:49:10;;;;;;;25.63;12.30;;;;;;;11.76;77.11;100606.69;5103434;28;20079;-68
2022/06/03 04:52:25;;;;;;;30.45;11.73;;;;;;;11.79;77.05;100596.25;5103576;28;20024;-67
2022/06/03 04:55:12;;;;;;;28.50;11.32;;;;;;;11.77;76.95;100609.28;5020142;28;20040;-68
2022/06/03 04:58:02;;;;;;;22.02;10.50;;;;;;;11.78;76.72;100603.22;5020717;28;20033;-67
2022/06/03 05:00:46;;;;;;;21.33;9.82;;;;;;;11.77;76.53;100618.84;5020483;28;20041;-66
2022/06/03 05:03:42;;;;;;;23.88;9.30;;;;;;;11.64;76.07;100600.78;5020830;28;20034;-68
2022/06/03 05:06:44;;;;;;;18.52;10.48;;;;;;;11.72;76.17;100621.50;5020824;28;20036;-66
2022/06/03 05:09:09;;;;;;;;;;;;;;;11.71;75.76;100624.09;5004786;28;20037;-65
2022/06/03 05:11:58;;;;;;;21.42;9.80;;;;;;;11.67;76.04;100620.66;5020900;28;19910;-66
2022/06/03 05:14:26;;;;;;;23.92;9.35;;;;;;;11.68;76.15;100621.53;5020609;28;20030;-66
2022/06/03 05:17:10;;;;;;;20.15;9.55;;;;;;;11.71;76.28;100619.75;5020519;28;20181;-66
2022/06/03 05:20:11;;;;;;;19.92;9.75;;;;;;;11.79;76.23;100617.06;5020355;28;20034;-66
2022/06/03 05:22:51;;;;;;;22.48;9.45;;;;;;;11.81;75.74;100628.34;5017813;28;20114;-66
2022/06/03 05:25:25;;;;;;;21.25;10.00;;;;;;;11.76;75.88;100614.50;5020912;28;20278;-67
2022/06/03 05:28:03;;;;;;;19.98;9.32;;;;;;;11.86;76.02;100630.88;5034309;28;20036;-67
2022/06/03 05:30:52;;;;;;;17.92;9.25;;;;;;;11.91;75.84;100634.31;5103275;28;20028;-68
2022/06/03 05:33:42;;;;;;;17.83;10.55;;;;;;;11.94;75.64;100631.66;5103316;28;20106;-68
2022/06/03 05:36:35;;;;;;;20.42;8.88;;;;;;;11.96;75.40;100632.53;5105971;28;20028;-68
2022/06/03 05:39:33;;;;;;;21.90;9.80;;;;;;;11.96;75.24;100632.53;5107266;28;20400;-68
2022/06/03 05:42:29;;;;;;;18.70;9.18;;;;;;;12.05;75.18;100633.28;5107324;28;20503;-68
2022/06/03 05:45:15;;;;;;;15.38;8.73;;;;;;;12.06;74.81;100641.06;5106990;28;20499;-68
2022/06/03 05:47:55;;;;;;;17.27;8.45;;;;;;;12.07;74.76;100641.94;5107186;28;20456;-67
2022/06/03 05:50:21;;;;;;;18.77;8.95;;;;;;;12.05;74.75;100648.91;5088725;28;20028;-68
2022/06/03 05:53:07;;;;;;;16.92;8.32;;;;;;;12.07;75.01;100650.63;5107020;28;20488;-67
2022/06/03 05:56:09;;;;;;;22.10;8.82;;;;;;;12.11;74.51;100644.53;5088323;28;20396;-66
2022/06/03 05:58:53;;;;;;;19.90;7.80;;;;;;;12.16;74.23;100646.22;5106517;28;20031;-66
2022/06/03 06:01:49;;;;;;;17.33;7.35;;;;;;;12.23;73.98;100643.53;5106953;28;20031;-66
2022/06/03 06:04:44;;;;;;;16.45;8.25;;;;;;;12.27;74.09;100641.75;5106834;28;20028;-66
2022/06/03 06:07:31;;;;;;;20.33;7.78;;;;;;;12.33;73.63;100652.09;5106783;28;20054;-66
2022/06/03 06:10:36;;;;;;;18.80;7.63;;;;;;;12.35;73.61;100655.53;5106513;28;20020;-66
2022/06/03 06:13:25;;;;;;;19.83;6.95;;;;;;;12.33;73.12;100649.47;5102494;28;20040;-66
2022/06/03 06:16:10;;;;;;;12.90;6.72;;;;;;;12.36;73.25;100654.66;5106346;28;20043;-67
2022/06/03 06:18:58;;;;;;;12.32;5.88;;;;;;;12.33;72.80;100657.28;5106631;28;20020;-66
2022/06/03 06:21:23;;;;;;;18.33;7.57;;;;;;;12.35;73.02;100652.06;5106565;28;20016;-66
2022/06/03 06:24:13;;;;;;;11.60;5.60;;;;;;;12.34;72.55;100637.31;5106468;28;20047;-66
2022/06/03 06:26:44;;;;;;;7.88;5.45;;;;;;;12.33;72.62;100649.47;5106479;28;20028;-65
2022/06/03 06:29:48;;;;;;;17.25;6.15;;;;;;;12.39;72.49;100635.53;5106112;28;20019;-66
2022/06/03 06:32:39;;;;;;;20.17;5.55;;;;;;;12.38;71.97;100639.88;5106347;28;20031;-66
2022/06/03 06:35:11;;;;;;;9.15;5.03;;;;;;;12.42;72.03;100647.66;5105554;28;20167;-66
2022/06/03 06:37:39;;;;;;;12.02;4.78;;;;;;;12.42;71.94;100652.84;5088072;28;20335;-66
2022/06/03 06:40:34;;;;;;;10.32;5.30;;;;;;;12.44;72.13;100638.09;5106010;28;20024;-66
2022/06/03 06:43:26;;;;;;;14.43;5.85;;;;;;;12.51;72.11;100645.81;5105865;28;20024;-66
2022/06/03 06:46:15;;;;;;;8.45;4.75;;;;;;;12.59;71.45;100648.31;5087999;28;20024;-66
2022/06/03 06:49:18;;;;;;;13.05;4.30;;;;;;;12.63;71.54;100655.22;5105380;28;20024;-65
2022/06/03 06:51:58;;;;;;;10.45;4.63;;;;;;;12.62;71.04;100656.06;5105919;28;20016;-65
2022/06/03 06:55:06;;;;;;;10.90;4.85;;;;;;;12.59;70.99;100658.72;5106085;28;20016;-65
2022/06/03 06:57:34;;;;;;;13.98;5.60;;;;;;;12.67;71.09;100652.56;5103910;28;20066;-66
2022/06/03 07:00:07;;;;;;;11.40;5.20;;;;;;;12.75;70.96;100655.91;5087351;28;20080;-66
2022/06/03 07:02:32;;;;;;;;;;;;;;;12.79;70.82;100668.03;5106172;28;20063;-66
2022/06/03 07:05:09;;;;;;;10.02;4.93;;;;;;;12.80;71.15;100663.66;5105694;28;19911;-66
2022/06/03 07:07:46;;;;;;;11.95;5.45;;;;;;;12.89;70.95;100660.94;5087388;28;20023;-66
2022/06/03 07:10:24;;;;;;;14.20;5.70;;;;;;;12.97;70.56;100666.06;5105388;28;20044;-67
2022/06/03 07:13:02;;;;;;;16.98;5.40;;;;;;;13.10;70.30;100669.34;5087021;28;20024;-67
2022/06/03 07:15:45;;;;;;;7.13;2.88;;;;;;;13.14;69.46;100658.84;5105627;28;20027;-67
2022/06/03 07:21:27;;;;;;;11.95;5.10;;;;;;;13.43;69.33;100661.88;5105173;28;20035;-66
2022/06/03 07:23:56;;;;;;;12.02;4.47;;;;;;;13.54;69.17;100677.38;5105340;28;20031;-66
2022/06/03 07:26:39;;;;;;;16.08;4.55;;;;;;;13.60;68.13;100665.97;5104967;28;20020;-66
2022/06/03 07:29:39;;;;;;;9.75;4.20;;;;;;;13.62;68.10;100662.47;5104795;28;20024;-67
2022/06/03 07:32:12;;;;;;;14.77;4.93;;;;;;;13.67;67.60;100678.03;5105130;28;20048;-66
2022/06/03 07:34:45;;;;;;;9.45;4.00;;;;;;;13.78;67.69;100679.59;5105295;28;20047;-66
2022/06/03 07:37:22;;;;;;;16.02;4.88;;;;;;;13.83;67.58;100677.78;5105286;28;20107;-66
2022/06/03 07:39:56;;;;;;;7.25;4.10;;;;;;;13.92;66.92;100681.94;5104919;28;20046;-66
2022/06/03 07:42:42;;;;;;;12.60;4.30;;;;;;;13.99;66.82;100688.81;5104816;28;20031;-66
2022/06/03 07:45:31;;;;;;;9.82;3.85;;;;;;;13.98;66.53;100690.53;5090240;28;20040;-66
2022/06/03 07:48:01;;;;;;;7.97;3.80;;;;;;;13.93;65.89;100686.31;5093741;28;20089;-68
2022/06/03 07:50:30;;;;;;;11.35;3.83;;;;;;;13.87;66.07;100685.50;5104667;28;20028;-66
2022/06/03 07:53:02;;;;;;;14.50;4.72;;;;;;;13.93;66.18;100684.53;5104704;28;20362;-66
2022/06/03 07:55:29;;;;;;;14.05;5.07;;;;;;;13.98;66.13;100687.94;5104560;28;20032;-67
2022/06/03 07:58:07;;;;;;;15.07;4.80;;;;;;;13.98;65.96;100693.16;5103684;28;20035;-67
2022/06/03 08:00:34;;;;;;;8.57;3.75;;;;;;;13.91;66.12;100695.91;5104090;28;20023;-67
2022/06/03 08:03:13;;;;;;;11.68;4.40;;;;;;;13.94;66.49;100695.84;5104726;28;20181;-67
2022/06/03 08:05:39;;;;;;;10.88;3.65;;;;;;;14.07;65.92;100697.34;5104598;28;20020;-68
2022/06/03 08:11:01;;;;;;;10.20;3.22;;;;;;;13.97;66.20;100691.44;5104660;28;20046;-66
2022/06/03 08:13:41;;;;;;;10.07;4.25;;;;;;;14.12;65.98;100695.50;5103990;28;20020;-66
2022/06/03 08:16:13;;;;;;;6.18;3.25;;;;;;;14.17;65.43;100692.81;5104100;28;20084;-67
2022/06/03 08:18:42;;;;;;;11.75;3.75;;;;;;;14.29;65.90;100702.16;5104188;28;20055;-67
2022/06/03 08:21:12;;;;;;;7.75;3.08;;;;;;;14.44;65.35;100703.59;5104289;28;20012;-67
2022/06/03 08:23:38;;;;;;;12.48;3.40;;;;;;;14.52;64.09;100693.00;5104212;28;20049;-67
2022/06/03 08:26:11;;;;;;;12.25;3.10;;;;;;;14.49;63.87;100709.59;5104163;28;20071;-67
2022/06/03 08:28:43;;;;;;;12.00;3.25;;;;;;;14.42;63.86;100701.91;5103705;28;20024;-67
2022/06/03 08:31:08;;;;;;;9.82;3.53;;;;;;;14.48;64.03;100707.03;5085781;28;20024;-67
2022/06/03 08:33:58;;;;;;;8.90;2.97;;;;;;;14.54;63.18;100711.25;5104280;28;20585;-67
2022/06/03 08:36:27;;;;;;;16.65;3.30;;;;;;;14.55;63.34;100708.63;5085477;28;20020;-67
2022/06/03 08:39:16;;;;;;;11.48;3.17;;;;;;;14.74;63.25;100708.25;5103500;28;20020;-67
2022/06/03 08:41:59;;;;;;;7.35;3.20;;;;;;;14.87;63.35;100704.50;5103771;28;20027;-67
2022/06/03 08:44:46;;;;;;;12.65;2.63;;;;;;;15.13;62.14;100710.03;5103637;28;20024;-67
2022/06/03 08:47:27;;;;;;;12.45;2.92;;;;;;;15.16;61.46;100709.97;5103999;28;20028;-67
2022/06/03 08:50:22;;;;;;;9.55;3.05;;;;;;;15.01;60.76;100711.19;5103495;28;20020;-67
2022/06/03 08:53:03;;;;;;;9.20;2.70;;;;;;;14.97;60.80;100713.00;5103807;28;20031;-67
2022/06/03 08:55:37;;;;;;;7.25;2.22;;;;;;;15.56;60.66;100717.81;5103489;28;20599;-67
2022/06/03 08:58:16;;;;;;;6.80;2.47;;;;;;;15.72;58.88;100716.50;5103462;28;20093;-67
2022/06/03 09:00:50;;;;;;;5.20;2.28;;;;;;;15.85;58.62;100708.34;5103581;28;20024;-68
2022/06/03 09:03:20;;;;;;;9.60;2.47;;;;;;;15.93;58.54;100705.50;5103435;28;20031;-67
2022/06/03 09:05:53;;;;;;;10.82;3.03;;;;;;;16.07;58.54;100713.06;5103551;28;20036;-68
2022/06/03 09:08:38;;;;;;;13.63;2.70;;;;;;;16.15;57.25;100715.47;5102608;28;20039;-66
2022/06/03 09:11:14;;;;;;;6.20;2.03;;;;;;;16.76;57.33;100716.41;5103193;28;20024;-66
2022/06/03 09:13:48;;;;;;;6.18;2.10;;;;;;;17.43;56.12;100696.00;5103547;28;20359;-67
2022/06/03 09:16:17;;;;;;;6.50;2.30;;;;;;;18.17;54.94;100720.72;5103460;28;20024;-67
2022/06/03 09:18:52;;;;;;;9.43;2.47;;;;;;;18.31;53.33;100718.47;5084928;28;20085;-67
2022/06/03 09:21:23;;;;;;;12.55;2.63;;;;;;;17.90;51.87;100718.09;5085568;28;20028;-66
2022/06/03 09:23:54;;;;;;;9.55;3.03;;;;;;;17.28;53.11;100714.00;5103324;28;20031;-66
2022/06/03 09:26:32;;;;;;;8.77;3.10;;;;;;;16.89;54.21;100723.00;5103241;28;20031;-66
2022/06/03 09:29:01;;;;;;;10.75;2.55;;;;;;;17.18;54.74;100728.28;5102893;28;20067;-67
2022/06/03 09:31:27;;;;;;;8.10;2.78;;;;;;;17.73;53.93;100726.56;5103231;28;20357;-67
2022/06/03 09:33:56;;;;;;;4.68;2.30;;;;;;;17.86;52.79;100724.38;5103321;28;20027;-66
2022/06/03 09:36:23;;;;;;;10.27;2.67;;;;;;;17.75;52.98;100717.72;5102989;28;20099;-66
2022/06/03 09:38:51;;;;;;;11.05;2.80;;;;;;;17.68;52.86;100726.72;5102938;28;20031;-66
2022/06/03 09:41:21;;;;;;;9.30;3.20;;;;;;;17.56;52.88;100727.97;5103275;28;20028;-66
2022/06/03 09:43:50;;;;;;;8.32;3.30;;;;;;;17.40;52.83;100723.22;5102889;28;20024;-66
2022/06/03 09:46:17;;;;;;;6.03;2.33;;;;;;;16.96;53.10;100723.69;5103055;28;20103;-67
2022/06/03 09:48:43;;;;;;;6.15;2.97;;;;;;;16.65;54.32;100730.69;5102838;28;20016;-66
2022/06/03 09:51:55;;;;;;;11.85;3.58;;;;;;;17.09;54.76;100725.03;5103175;28;20491;-66
2022/06/03 09:54:08;;;;;;;6.40;2.83;;;;;;;17.36;53.28;100726.00;5102909;28;20222;-66
2022/06/03 09:56:37;;;;;;;7.55;2.38;;;;;;;17.20;53.89;100729.09;5102525;28;20044;-66
2022/06/03 09:59:03;;;;;;;15.85;3.28;;;;;;;16.97;54.33;100730.63;5102524;28;21055;-66
2022/06/03 10:01:30;;;;;;;9.25;3.13;;;;;;;16.82;54.65;100713.59;5084586;28;20044;-66
2022/06/03 10:03:59;;;;;;;8.10;2.47;;;;;;;16.93;54.36;100721.16;5102676;28;20031;-66
2022/06/03 10:15:37;;;;;;;10.63;3.00;;;;;;;17.16;53.97;100730.97;5101954;28;20054;-67
2022/06/03 10:17:33;;;;;;;9.18;3.28;;;;;;;17.03;54.05;100745.34;5102383;28;20047;-66
2022/06/03 10:19:58;;;;;;;8.13;3.17;;;;;;;16.86;54.54;100749.31;5102466;28;20028;-66
2022/06/03 10:22:24;;;;;;;7.95;3.00;;;;;;;16.62;54.80;100743.88;5103769;28;20066;-66
2022/06/03 10:24:49;;;;;;;5.82;2.83;;;;;;;16.51;55.64;100740.69;5106430;28;20352;-67
2022/06/03 10:27:18;;;;;;;5.40;2.92;;;;;;;16.59;55.84;100744.84;5106536;28;20020;-66
2022/06/03 10:29:49;;;;;;;8.27;2.88;;;;;;;16.52;55.75;100751.13;5106131;28;20016;-66
2022/06/03 10:32:19;;;;;;;8.70;3.42;;;;;;;16.42;55.97;100750.53;5106305;28;20031;-66
2022/06/03 10:34:45;;;;;;;12.00;3.22;;;;;;;16.34;56.35;100747.28;5106132;28;20062;-66
2022/06/03 10:37:20;;;;;;;7.28;2.90;;;;;;;16.30;56.50;100751.72;5105945;28;20016;-66
2022/06/03 10:39:46;;;;;;;8.75;2.97;;;;;;;16.26;56.25;100752.72;5106103;28;20024;-66
2022/06/03 10:42:15;;;;;;;6.40;3.00;;;;;;;16.04;56.27;100749.81;5105999;28;20081;-66
2022/06/03 10:44:44;;;;;;;7.53;2.90;;;;;;;15.83;56.82;100759.88;5105717;28;20396;-66
2022/06/03 10:47:17;;;;;;;7.07;3.50;;;;;;;15.83;57.32;100759.88;5105897;28;20051;-66
2022/06/03 10:49:56;;;;;;;6.50;2.85;;;;;;;15.97;57.44;100765.66;5105789;28;20024;-66
2022/06/03 11:01:17;;;;;;;5.88;2.78;;;;;;;15.86;56.19;100771.13;5105831;28;20344;-66
2022/06/03 11:03:49;;;;;;;6.05;3.20;;;;;;;15.78;56.21;100774.84;5105503;28;20028;-66
2022/06/03 11:06:17;;;;;;;6.78;2.67;;;;;;;15.75;57.07;100775.75;5105692;28;20024;-66
2022/06/03 11:08:58;;;;;;;7.82;3.00;;;;;;;15.68;57.14;100776.81;5105718;28;20092;-66
2022/06/03 11:11:51;;;;;;;6.53;2.60;;;;;;;15.56;57.96;100773.59;5105669;28;20024;-67
2022/06/03 11:14:29;;;;;;;9.00;3.42;;;;;;;15.61;58.10;100774.34;5074697;28;20124;-67
2022/06/03 11:17:04;;;;;;;8.15;3.25;;;;;;;15.63;57.68;100776.94;5105456;28;20016;-67
2022/06/03 11:19:33;;;;;;;7.18;2.65;;;;;;;15.65;58.46;100779.50;5105241;28;20036;-67
2022/06/03 11:22:23;;;;;;;6.85;2.67;;;;;;;15.68;58.09;100776.81;5105421;28;20038;-67
2022/06/03 11:24:58;;;;;;;8.50;2.33;;;;;;;15.53;57.69;100776.28;5105373;28;20027;-67
2022/06/03 11:27:39;;;;;;;4.88;2.42;;;;;;;15.35;57.64;100785.44;5105254;28;20024;-67
2022/06/03 11:30:13;;;;;;;7.05;2.53;;;;;;;15.27;58.18;100784.72;5104980;28;20024;-67
2022/06/03 11:32:42;;;;;;;9.18;2.78;;;;;;;15.41;58.85;100787.03;5104964;28;20028;-67
2022/06/03 11:35:18;;;;;;;7.05;2.42;;;;;;;15.61;58.28;100776.09;5105092;28;20054;-67
2022/06/03 11:37:48;;;;;;;10.88;2.83;;;;;;;15.63;57.54;100786.53;5105257;28;20183;-66
2022/06/03 11:40:22;;;;;;;8.68;3.20;;;;;;;15.50;57.54;100786.81;5105021;28;20020;-66
2022/06/03 11:42:57;;;;;;;6.20;2.33;;;;;;;15.45;58.57;100793.91;5105284;28;20027;-67
2022/06/03 11:45:36;;;;;;;5.85;2.75;;;;;;;15.60;58.48;100785.72;5105015;28;20046;-67
2022/06/03 11:48:12;;;;;;;7.47;2.63;;;;;;;15.65;58.35;100779.50;5105026;28;20075;-67
2022/06/03 11:50:37;;;;;;;7.60;2.40;;;;;;;15.72;58.22;100784.56;5104965;28;20107;-68
2022/06/03 11:53:04;;;;;;;5.88;2.30;;;;;;;15.79;58.29;100792.25;5104696;28;20102;-68
2022/06/03 11:55:32;;;;;;;5.00;2.40;;;;;;;15.89;58.21;100791.16;5104352;28;20484;-68
2022/06/03 11:58:01;;;;;;;10.32;3.35;;;;;;;15.96;57.83;100787.47;5104655;28;20051;-68
2022/06/03 12:00:32;;;;;;;9.60;3.25;;;;;;;15.92;58.03;100777.13;5104545;28;20035;-68
2022/06/03 12:03:03;;;;;;;4.82;2.42;;;;;;;15.86;58.04;100784.22;5104647;28;20079;-67
2022/06/03 12:05:41;;;;;;;9.38;3.83;;;;;;;15.78;58.03;100787.94;5104692;28;20103;-67
2022/06/03 12:08:30;;;;;;;8.90;3.08;;;;;;;15.79;58.95;100779.16;5104707;28;20095;-68
2022/06/03 12:11:09;;;;;;;5.35;2.45;;;;;;;15.96;58.53;100781.38;5104446;28;20399;-68
2022/06/03 12:13:35;;;;;;;9.23;2.83;;;;;;;16.06;57.61;100787.28;5104413;28;20317;-68
2022/06/03 12:16:04;;;;;;;8.45;2.90;;;;;;;16.08;57.50;100788.97;5104340;28;20327;-68
2022/06/03 12:18:37;;;;;;;6.55;3.20;;;;;;;16.14;57.73;100793.19;5104721;28;20024;-68
2022/06/03 12:21:12;;;;;;;5.90;2.22;;;;;;;16.12;57.05;100788.88;5104066;28;20369;-67
2022/06/03 12:23:37;;;;;;;9.25;2.67;;;;;;;16.16;57.29;100786.16;5104212;28;20046;-68
2022/06/03 12:26:31;;;;;;;7.38;2.80;;;;;;;16.19;56.94;100795.69;5085506;28;20024;-68
2022/06/03 12:29:22;;;;;;;8.25;2.70;;;;;;;16.16;56.87;100791.38;5103972;28;20047;-68
2022/06/03 12:31:48;;;;;;;7.35;2.28;;;;;;;16.09;55.63;100785.44;5104134;28;20031;-68
2022/06/03 12:34:20;;;;;;;7.07;2.53;;;;;;;16.02;55.77;100796.97;5085735;28;20028;-68
2022/06/03 12:36:51;;;;;;;6.43;2.30;;;;;;;16.07;56.25;100789.84;5103920;28;20449;-68
2022/06/03 12:39:23;;;;;;;6.03;2.40;;;;;;;16.23;56.00;100797.31;5104073;28;20103;-68
2022/06/03 12:41:48;;;;;;;8.40;2.35;;;;;;;16.33;56.07;100788.31;5103891;28;20039;-66
2022/06/03 12:44:23;;;;;;;8.30;2.40;;;;;;;16.56;55.66;100783.34;5103413;28;20020;-67